PWSweather.com
Personal Weather Stations
Station Observations
DW0493
Castlewood Ranch, Castle Rock, CO

Castlewood RanchCastle Rock, CO

Lat: 39.36264, Lon: -104.79156

Elevation: 6608

Station Type: Davis Pro Vantage 2

http://www.castlerockweather.org

Latest ConditionsUpdated 10:55:00 PM MST Wednesday, Dec 7, 2016
Currently Today's Max Today's Min Today's Average
Temperature -4.9°F-20.5°C 11.8°F-11.2°C -5.9°F-21.1°C 6.3°F-14.3°C
Dew Point -9.5°F-23.1°C 7.7°F-13.5°C -11.0°F-23.9°C 2.0°F-16.7°C
Winds Calm Calm 5.0 mph SE8.0 kmh SE - 0.2 mph 0.3 kmh
Wind Gusts -- 6.0 mph9.7 kmh - -
Humidity 80% 92% 77% 82%
Pressure 31.80 in1076.9 mb 32.03 in1084.7 mb 31.45 in1065.0 mb -
Hour Temp Dew Point Humidity Winds Wind Gusts Pressure Precip Precip Rate Daily Precip Total
10:55 PM -4.9°F-20.5°C -9.5°F-23.1°C 80% Calm Calm -- 31.80 in1076.9 mb 0.00 in0.0 mm 0.00 in0.0 mm 0.00 in0.0 mm
10:50 PM -4.8°F-20.4°C -9.4°F-23.0°C 80% Calm Calm -- 31.80 in1076.9 mb 0.00 in0.0 mm 0.00 in0.0 mm 0.00 in0.0 mm
10:45 PM -4.6°F-20.3°C -8.9°F-22.7°C 81% Calm Calm -- 31.80 in1076.9 mb 0.00 in0.0 mm 0.00 in0.0 mm 0.00 in0.0 mm
10:40 PM -4.6°F-20.3°C -8.9°F-22.7°C 81% Calm Calm -- 31.80 in1076.9 mb 0.00 in0.0 mm 0.00 in0.0 mm 0.00 in0.0 mm
10:35 PM -4.5°F-20.3°C -8.8°F-22.7°C 81% Calm Calm -- 31.81 in1077.2 mb 0.00 in0.0 mm 0.00 in0.0 mm 0.00 in0.0 mm
10:30 PM -4.5°F-20.3°C -8.8°F-22.7°C 81% Calm Calm -- 31.82 in1077.5 mb 0.00 in0.0 mm 0.00 in0.0 mm 0.00 in0.0 mm
10:25 PM -4.5°F-20.3°C -8.8°F-22.7°C 81% Calm Calm -- 31.86 in1078.9 mb 0.00 in0.0 mm 0.00 in0.0 mm 0.00 in0.0 mm
10:20 PM -4.3°F-20.2°C -8.6°F-22.6°C 81% Calm Calm -- 31.86 in1078.9 mb 0.00 in0.0 mm 0.00 in0.0 mm 0.00 in0.0 mm
10:15 PM -4.3°F-20.2°C -8.6°F-22.6°C 81% Calm Calm -- 31.91 in1080.6 mb 0.00 in0.0 mm 0.00 in0.0 mm 0.00 in0.0 mm
10:10 PM -4.6°F-20.3°C -8.7°F-22.6°C 82% Calm Calm -- 31.87 in1079.2 mb 0.00 in0.0 mm 0.00 in0.0 mm 0.00 in0.0 mm
10:05 PM -5.0°F-20.6°C -9.3°F-22.9°C 81% Calm Calm -- 31.79 in1076.5 mb 0.00 in0.0 mm 0.00 in0.0 mm 0.00 in0.0 mm
10:00 PM -5.4°F-20.8°C -9.7°F-23.2°C 81% Calm Calm -- 31.79 in1076.5 mb 0.00 in0.0 mm 0.00 in0.0 mm 0.00 in0.0 mm
09:55 PM -5.6°F-20.9°C -9.9°F-23.3°C 81% Calm Calm -- 31.96 in1082.3 mb 0.00 in0.0 mm 0.00 in0.0 mm 0.00 in0.0 mm
09:50 PM -5.7°F-20.9°C -10.0°F-23.3°C 81% Calm Calm -- 31.96 in1082.3 mb 0.00 in0.0 mm 0.00 in0.0 mm 0.00 in0.0 mm
09:45 PM -5.7°F-20.9°C -10.0°F-23.3°C 81% Calm Calm -- 31.96 in1082.3 mb 0.00 in0.0 mm 0.00 in0.0 mm 0.00 in0.0 mm
09:40 PM -5.8°F-21.0°C -10.4°F-23.6°C 80% Calm Calm -- 31.98 in1083.0 mb 0.00 in0.0 mm 0.00 in0.0 mm 0.00 in0.0 mm
09:35 PM -5.6°F-20.9°C -10.2°F-23.4°C 80% Calm Calm -- 31.98 in1083.0 mb 0.00 in0.0 mm 0.00 in0.0 mm 0.00 in0.0 mm
09:30 PM -5.5°F-20.8°C -9.8°F-23.2°C 81% Calm Calm -- 31.90 in1080.3 mb 0.00 in0.0 mm 0.00 in0.0 mm 0.00 in0.0 mm
09:25 PM -5.6°F-20.9°C -10.2°F-23.4°C 80% Calm Calm -- 31.73 in1074.5 mb 0.00 in0.0 mm 0.00 in0.0 mm 0.00 in0.0 mm
09:20 PM -5.4°F-20.8°C -9.7°F-23.2°C 81% Calm Calm -- 31.73 in1074.5 mb 0.00 in0.0 mm 0.00 in0.0 mm 0.00 in0.0 mm
09:15 PM -5.2°F-20.7°C -9.5°F-23.1°C 81% Calm Calm -- 31.90 in1080.3 mb 0.00 in0.0 mm 0.00 in0.0 mm 0.00 in0.0 mm
09:10 PM -5.7°F-20.9°C -10.3°F-23.5°C 80% Calm Calm -- 31.90 in1080.3 mb 0.00 in0.0 mm 0.00 in0.0 mm 0.00 in0.0 mm
09:05 PM -5.9°F-21.1°C -11.0°F-23.9°C 78% Calm Calm -- 31.91 in1080.6 mb 0.00 in0.0 mm 0.00 in0.0 mm 0.00 in0.0 mm
09:00 PM -5.4°F-20.8°C -10.5°F-23.6°C 78% Calm Calm -- 31.91 in1080.6 mb 0.00 in0.0 mm 0.00 in0.0 mm 0.00 in0.0 mm
08:55 PM -4.9°F-20.5°C -10.0°F-23.3°C 78% Calm Calm -- 31.94 in1081.6 mb 0.00 in0.0 mm 0.00 in0.0 mm 0.00 in0.0 mm
08:50 PM -4.3°F-20.2°C -9.7°F-23.2°C 77% Calm Calm -- 31.94 in1081.6 mb 0.00 in0.0 mm 0.00 in0.0 mm 0.00 in0.0 mm
08:45 PM -3.1°F-19.5°C -8.5°F-22.5°C 77% Calm Calm -- 32.03 in1084.7 mb 0.00 in0.0 mm 0.00 in0.0 mm 0.00 in0.0 mm
08:40 PM -2.1°F-18.9°C -7.0°F-21.7°C 79% Calm Calm -- 32.03 in1084.7 mb 0.00 in0.0 mm 0.00 in0.0 mm 0.00 in0.0 mm
08:35 PM -1.7°F-18.7°C -6.6°F-21.4°C 79% Calm Calm -- 31.83 in1077.9 mb 0.00 in0.0 mm 0.00 in0.0 mm 0.00 in0.0 mm
08:29 PM -1.1°F-18.4°C -6.3°F-21.3°C 78% Calm Calm -- 31.83 in1077.9 mb 0.00 in0.0 mm 0.00 in0.0 mm 0.00 in0.0 mm
08:25 PM -0.3°F-17.9°C -5.5°F-20.8°C 78% Calm Calm -- 31.83 in1077.9 mb 0.00 in0.0 mm 0.00 in0.0 mm 0.00 in0.0 mm
08:20 PM 0.4°F-17.6°C -4.8°F-20.4°C 78% Calm Calm -- 31.83 in1077.9 mb 0.00 in0.0 mm 0.00 in0.0 mm 0.00 in0.0 mm
08:15 PM 1.6°F-16.9°C -3.9°F-19.9°C 77% Calm Calm -- 31.90 in1080.3 mb 0.00 in0.0 mm 0.00 in0.0 mm 0.00 in0.0 mm
08:10 PM 3.1°F-16.1°C -1.7°F-18.7°C 80% Calm Calm -- 31.88 in1079.6 mb 0.00 in0.0 mm 0.00 in0.0 mm 0.00 in0.0 mm
08:05 PM 3.5°F-15.8°C -1.0°F-18.3°C 81% Calm Calm -- 31.81 in1077.2 mb 0.00 in0.0 mm 0.00 in0.0 mm 0.00 in0.0 mm
08:00 PM 3.7°F-15.7°C -0.8°F-18.2°C 81% Calm Calm -- 31.71 in1073.8 mb 0.00 in0.0 mm 0.00 in0.0 mm 0.00 in0.0 mm
07:55 PM 3.9°F-15.6°C -0.6°F-18.1°C 81% Calm Calm -- 31.71 in1073.8 mb 0.00 in0.0 mm 0.00 in0.0 mm 0.00 in0.0 mm
07:50 PM 3.8°F-15.7°C -0.7°F-18.2°C 81% Calm Calm -- 31.79 in1076.5 mb 0.00 in0.0 mm 0.00 in0.0 mm 0.00 in0.0 mm
07:45 PM 3.8°F-15.7°C -0.5°F-18.1°C 82% Calm Calm -- 31.74 in1074.8 mb 0.00 in0.0 mm 0.00 in0.0 mm 0.00 in0.0 mm
07:40 PM 3.6°F-15.8°C -0.9°F-18.3°C 81% Calm Calm -- 31.74 in1074.8 mb 0.00 in0.0 mm 0.00 in0.0 mm 0.00 in0.0 mm
07:35 PM 3.7°F-15.7°C -0.8°F-18.2°C 81% Calm Calm -- 31.82 in1077.5 mb 0.00 in0.0 mm 0.00 in0.0 mm 0.00 in0.0 mm
07:30 PM 4.1°F-15.5°C -0.4°F-18.0°C 81% Calm Calm -- 31.75 in1075.2 mb 0.00 in0.0 mm 0.00 in0.0 mm 0.00 in0.0 mm
07:25 PM 4.4°F-15.3°C 0.1°F-17.7°C 82% Calm Calm -- 31.72 in1074.2 mb 0.00 in0.0 mm 0.00 in0.0 mm 0.00 in0.0 mm
07:20 PM 4.6°F-15.2°C 0.3°F-17.6°C 82% Calm Calm -- 31.61 in1070.4 mb 0.00 in0.0 mm 0.00 in0.0 mm 0.00 in0.0 mm
07:15 PM 4.7°F-15.2°C 0.4°F-17.6°C 82% Calm Calm -- 31.59 in1069.8 mb 0.00 in0.0 mm 0.00 in0.0 mm 0.00 in0.0 mm
07:10 PM 4.8°F-15.1°C 0.5°F-17.5°C 82% Calm Calm -- 31.68 in1072.8 mb 0.00 in0.0 mm 0.00 in0.0 mm 0.00 in0.0 mm
07:05 PM 4.9°F-15.1°C 0.6°F-17.4°C 82% Calm Calm -- 31.60 in1070.1 mb 0.00 in0.0 mm 0.00 in0.0 mm 0.00 in0.0 mm
07:00 PM 4.9°F-15.1°C 0.6°F-17.4°C 82% Calm Calm -- 31.63 in1071.1 mb 0.00 in0.0 mm 0.00 in0.0 mm 0.00 in0.0 mm
06:55 PM 4.9°F-15.1°C 0.9°F-17.3°C 83% Calm Calm -- 31.66 in1072.1 mb 0.00 in0.0 mm 0.00 in0.0 mm 0.00 in0.0 mm
06:50 PM 4.9°F-15.1°C 0.9°F-17.3°C 83% Calm Calm -- 31.62 in1070.8 mb 0.00 in0.0 mm 0.00 in0.0 mm 0.00 in0.0 mm
06:45 PM 5.0°F-15.0°C 1.0°F-17.2°C 83% Calm Calm -- 31.67 in1072.5 mb 0.00 in0.0 mm 0.00 in0.0 mm 0.00 in0.0 mm
06:40 PM 4.9°F-15.1°C 0.9°F-17.3°C 83% Calm Calm -- 31.70 in1073.5 mb 0.00 in0.0 mm 0.00 in0.0 mm 0.00 in0.0 mm
06:35 PM 4.9°F-15.1°C 0.9°F-17.3°C 83% Calm Calm -- 31.77 in1075.9 mb 0.00 in0.0 mm 0.00 in0.0 mm 0.00 in0.0 mm
06:30 PM 4.9°F-15.1°C 0.9°F-17.3°C 83% Calm Calm -- 31.81 in1077.2 mb 0.00 in0.0 mm 0.00 in0.0 mm 0.00 in0.0 mm
06:25 PM 4.9°F-15.1°C 0.9°F-17.3°C 83% Calm Calm -- 31.84 in1078.2 mb 0.00 in0.0 mm 0.00 in0.0 mm 0.00 in0.0 mm
06:20 PM 4.9°F-15.1°C 0.9°F-17.3°C 83% Calm Calm -- 31.84 in1078.2 mb 0.00 in0.0 mm 0.00 in0.0 mm 0.00 in0.0 mm
06:15 PM 4.8°F-15.1°C 0.5°F-17.5°C 82% Calm Calm -- 31.89 in1079.9 mb 0.00 in0.0 mm 0.00 in0.0 mm 0.00 in0.0 mm
06:10 PM 4.9°F-15.1°C 0.6°F-17.4°C 82% Calm Calm 2.0 mph3.2 kmh 31.85 in1078.6 mb 0.00 in0.0 mm 0.00 in0.0 mm 0.00 in0.0 mm
06:05 PM 4.9°F-15.1°C 0.6°F-17.4°C 82% Calm Calm -- 31.89 in1079.9 mb 0.00 in0.0 mm 0.00 in0.0 mm 0.00 in0.0 mm
06:00 PM 4.9°F-15.1°C 0.6°F-17.4°C 82% Calm Calm -- 31.91 in1080.6 mb 0.00 in0.0 mm 0.00 in0.0 mm 0.00 in0.0 mm
05:55 PM 4.9°F-15.1°C 0.6°F-17.4°C 82% Calm Calm -- 31.91 in1080.6 mb 0.00 in0.0 mm 0.00 in0.0 mm 0.00 in0.0 mm
05:50 PM 4.8°F-15.1°C 0.5°F-17.5°C 82% Calm Calm -- 31.83 in1077.9 mb 0.00 in0.0 mm 0.00 in0.0 mm 0.00 in0.0 mm
05:45 PM 4.8°F-15.1°C 0.5°F-17.5°C 82% Calm Calm -- 31.70 in1073.5 mb 0.00 in0.0 mm 0.00 in0.0 mm 0.00 in0.0 mm
05:40 PM 4.8°F-15.1°C 0.5°F-17.5°C 82% Calm Calm -- 31.61 in1070.4 mb 0.00 in0.0 mm 0.00 in0.0 mm 0.00 in0.0 mm
05:35 PM 4.8°F-15.1°C 0.5°F-17.5°C 82% Calm Calm -- 31.72 in1074.2 mb 0.00 in0.0 mm 0.00 in0.0 mm 0.00 in0.0 mm
05:29 PM 4.8°F-15.1°C 0.5°F-17.5°C 82% Calm Calm -- 31.72 in1074.2 mb 0.00 in0.0 mm 0.00 in0.0 mm 0.00 in0.0 mm
05:25 PM 4.9°F-15.1°C 0.6°F-17.4°C 82% Calm Calm -- 31.75 in1075.2 mb 0.00 in0.0 mm 0.00 in0.0 mm 0.00 in0.0 mm
05:20 PM 5.0°F-15.0°C 0.7°F-17.4°C 82% Calm Calm 2.0 mph3.2 kmh 31.86 in1078.9 mb 0.00 in0.0 mm 0.00 in0.0 mm 0.00 in0.0 mm
05:15 PM 5.0°F-15.0°C 0.7°F-17.4°C 82% Calm Calm -- 31.89 in1079.9 mb 0.00 in0.0 mm 0.00 in0.0 mm 0.00 in0.0 mm
05:10 PM 5.0°F-15.0°C 0.7°F-17.4°C 82% Calm Calm 4.0 mph6.4 kmh 31.89 in1079.9 mb 0.00 in0.0 mm 0.00 in0.0 mm 0.00 in0.0 mm
05:05 PM 5.1°F-14.9°C 0.8°F-17.3°C 82% Calm Calm 2.0 mph3.2 kmh 31.86 in1078.9 mb 0.00 in0.0 mm 0.00 in0.0 mm 0.00 in0.0 mm
05:00 PM 5.1°F-14.9°C 0.8°F-17.3°C 82% Calm Calm -- 31.72 in1074.2 mb 0.00 in0.0 mm 0.00 in0.0 mm 0.00 in0.0 mm
04:55 PM 5.1°F-14.9°C 0.8°F-17.3°C 82% Calm Calm 3.0 mph4.8 kmh 31.73 in1074.5 mb 0.00 in0.0 mm 0.00 in0.0 mm 0.00 in0.0 mm
04:50 PM 5.2°F-14.9°C 0.7°F-17.4°C 81% 3.0 mph N4.8 kmh N 4.0 mph6.4 kmh 31.72 in1074.2 mb 0.00 in0.0 mm 0.00 in0.0 mm 0.00 in0.0 mm
04:45 PM 5.2°F-14.9°C 0.7°F-17.4°C 81% 1.0 mph N1.6 kmh N 3.0 mph4.8 kmh 31.69 in1073.1 mb 0.00 in0.0 mm 0.00 in0.0 mm 0.00 in0.0 mm
04:40 PM 5.3°F-14.8°C 0.8°F-17.3°C 81% Calm Calm 4.0 mph6.4 kmh 31.69 in1073.1 mb 0.00 in0.0 mm 0.00 in0.0 mm 0.00 in0.0 mm
04:35 PM 5.5°F-14.7°C 1.0°F-17.2°C 81% Calm Calm 4.0 mph6.4 kmh 31.69 in1073.1 mb 0.00 in0.0 mm 0.00 in0.0 mm 0.00 in0.0 mm
04:30 PM 5.7°F-14.6°C 0.9°F-17.3°C 80% Calm Calm 4.0 mph6.4 kmh 31.69 in1073.1 mb 0.00 in0.0 mm 0.00 in0.0 mm 0.00 in0.0 mm
04:25 PM 5.9°F-14.5°C 1.1°F-17.2°C 80% 1.0 mph N1.6 kmh N 3.0 mph4.8 kmh 31.69 in1073.1 mb 0.00 in0.0 mm 0.00 in0.0 mm 0.00 in0.0 mm
04:20 PM 6.2°F-14.3°C 1.4°F-17.0°C 80% Calm Calm -- 31.69 in1073.1 mb 0.00 in0.0 mm 0.00 in0.0 mm 0.00 in0.0 mm
04:15 PM 6.5°F-14.2°C 1.4°F-17.0°C 79% Calm Calm -- 31.86 in1078.9 mb 0.00 in0.0 mm 0.00 in0.0 mm 0.00 in0.0 mm
04:10 PM 6.8°F-14.0°C 1.7°F-16.8°C 79% Calm Calm -- 31.87 in1079.2 mb 0.00 in0.0 mm 0.00 in0.0 mm 0.00 in0.0 mm
04:05 PM 7.2°F-13.8°C 1.8°F-16.8°C 78% Calm Calm -- 31.80 in1076.9 mb 0.00 in0.0 mm 0.00 in0.0 mm 0.00 in0.0 mm
04:00 PM 7.3°F-13.7°C 1.9°F-16.7°C 78% Calm Calm 3.0 mph4.8 kmh 31.74 in1074.8 mb 0.00 in0.0 mm 0.00 in0.0 mm 0.00 in0.0 mm
03:55 PM 7.5°F-13.6°C 2.1°F-16.6°C 78% Calm Calm 2.0 mph3.2 kmh 31.75 in1075.2 mb 0.00 in0.0 mm 0.00 in0.0 mm 0.00 in0.0 mm
03:50 PM 7.6°F-13.6°C 2.2°F-16.6°C 78% Calm Calm -- 31.85 in1078.6 mb 0.00 in0.0 mm 0.00 in0.0 mm 0.00 in0.0 mm
03:45 PM 7.6°F-13.6°C 2.2°F-16.6°C 78% Calm Calm -- 31.85 in1078.6 mb 0.00 in0.0 mm 0.00 in0.0 mm 0.00 in0.0 mm
03:40 PM 7.5°F-13.6°C 2.1°F-16.6°C 78% Calm Calm -- 31.83 in1077.9 mb 0.00 in0.0 mm 0.00 in0.0 mm 0.00 in0.0 mm
03:35 PM 7.3°F-13.7°C 1.9°F-16.7°C 78% Calm Calm -- 31.85 in1078.6 mb 0.00 in0.0 mm 0.00 in0.0 mm 0.00 in0.0 mm
03:29 PM 7.3°F-13.7°C 1.9°F-16.7°C 78% Calm Calm 3.0 mph4.8 kmh 31.85 in1078.6 mb 0.00 in0.0 mm 0.00 in0.0 mm 0.00 in0.0 mm
03:24 PM 7.3°F-13.7°C 1.9°F-16.7°C 78% 2.0 mph N3.2 kmh N 2.0 mph3.2 kmh 31.86 in1078.9 mb 0.00 in0.0 mm 0.00 in0.0 mm 0.00 in0.0 mm
03:19 PM 7.3°F-13.7°C 1.9°F-16.7°C 78% Calm Calm 2.0 mph3.2 kmh 31.87 in1079.2 mb 0.00 in0.0 mm 0.00 in0.0 mm 0.00 in0.0 mm
03:15 PM 7.4°F-13.7°C 2.0°F-16.7°C 78% Calm Calm -- 31.85 in1078.6 mb 0.00 in0.0 mm 0.00 in0.0 mm 0.00 in0.0 mm
03:09 PM 7.5°F-13.6°C 2.1°F-16.6°C 78% 2.0 mph N3.2 kmh N 3.0 mph4.8 kmh 31.86 in1078.9 mb 0.00 in0.0 mm 0.00 in0.0 mm 0.00 in0.0 mm
03:05 PM 7.6°F-13.6°C 2.2°F-16.6°C 78% Calm Calm 4.0 mph6.4 kmh 31.86 in1078.9 mb 0.00 in0.0 mm 0.00 in0.0 mm 0.00 in0.0 mm
02:59 PM 7.6°F-13.6°C 2.2°F-16.6°C 78% Calm Calm 3.0 mph4.8 kmh 31.86 in1078.9 mb 0.00 in0.0 mm 0.00 in0.0 mm 0.00 in0.0 mm
02:55 PM 7.9°F-13.4°C 2.5°F-16.4°C 78% Calm Calm 4.0 mph6.4 kmh 31.86 in1078.9 mb 0.00 in0.0 mm 0.00 in0.0 mm 0.00 in0.0 mm
02:49 PM 8.0°F-13.3°C 2.6°F-16.3°C 78% Calm Calm 4.0 mph6.4 kmh 31.85 in1078.6 mb 0.00 in0.0 mm 0.00 in0.0 mm 0.00 in0.0 mm
02:44 PM 8.2°F-13.2°C 2.8°F-16.2°C 78% Calm Calm 3.0 mph4.8 kmh 31.85 in1078.6 mb 0.00 in0.0 mm 0.00 in0.0 mm 0.00 in0.0 mm
02:39 PM 8.1°F-13.3°C 2.7°F-16.3°C 78% Calm Calm -- 31.86 in1078.9 mb 0.00 in0.0 mm 0.00 in0.0 mm 0.00 in0.0 mm
02:35 PM 8.2°F-13.2°C 2.8°F-16.2°C 78% Calm Calm -- 31.86 in1078.9 mb 0.00 in0.0 mm 0.00 in0.0 mm 0.00 in0.0 mm
02:30 PM 8.3°F-13.2°C 2.9°F-16.2°C 78% Calm Calm 3.0 mph4.8 kmh 31.84 in1078.2 mb 0.00 in0.0 mm 0.00 in0.0 mm 0.00 in0.0 mm
02:25 PM 8.3°F-13.2°C 2.9°F-16.2°C 78% Calm Calm -- 31.85 in1078.6 mb 0.00 in0.0 mm 0.00 in0.0 mm 0.00 in0.0 mm
02:20 PM 8.3°F-13.2°C 2.6°F-16.3°C 77% Calm Calm -- 31.83 in1077.9 mb 0.00 in0.0 mm 0.00 in0.0 mm 0.00 in0.0 mm
02:15 PM 8.3°F-13.2°C 2.9°F-16.2°C 78% Calm Calm -- 31.83 in1077.9 mb 0.00 in0.0 mm 0.00 in0.0 mm 0.00 in0.0 mm
02:10 PM 8.2°F-13.2°C 2.8°F-16.2°C 78% Calm Calm -- 31.82 in1077.5 mb 0.00 in0.0 mm 0.00 in0.0 mm 0.00 in0.0 mm
02:05 PM 8.2°F-13.2°C 2.8°F-16.2°C 78% Calm Calm -- 31.77 in1075.9 mb 0.00 in0.0 mm 0.00 in0.0 mm 0.00 in0.0 mm
02:00 PM 8.1°F-13.3°C 2.7°F-16.3°C 78% Calm Calm -- 31.77 in1075.9 mb 0.00 in0.0 mm 0.00 in0.0 mm 0.00 in0.0 mm
01:55 PM 8.1°F-13.3°C 3.0°F-16.1°C 79% Calm Calm -- 31.70 in1073.5 mb 0.00 in0.0 mm 0.00 in0.0 mm 0.00 in0.0 mm
01:50 PM 7.8°F-13.4°C 2.7°F-16.3°C 79% Calm Calm -- 31.73 in1074.5 mb 0.00 in0.0 mm 0.00 in0.0 mm 0.00 in0.0 mm
01:45 PM 7.5°F-13.6°C 2.4°F-16.4°C 79% Calm Calm -- 31.72 in1074.2 mb 0.00 in0.0 mm 0.00 in0.0 mm 0.00 in0.0 mm
01:40 PM 7.4°F-13.7°C 2.3°F-16.5°C 79% Calm Calm -- 31.68 in1072.8 mb 0.00 in0.0 mm 0.00 in0.0 mm 0.00 in0.0 mm
01:35 PM 7.5°F-13.6°C 2.4°F-16.4°C 79% Calm Calm -- 31.70 in1073.5 mb 0.00 in0.0 mm 0.00 in0.0 mm 0.00 in0.0 mm
01:30 PM 7.5°F-13.6°C 2.4°F-16.4°C 79% Calm Calm -- 31.73 in1074.5 mb 0.00 in0.0 mm 0.00 in0.0 mm 0.00 in0.0 mm
01:25 PM 7.4°F-13.7°C 2.3°F-16.5°C 79% Calm Calm -- 31.68 in1072.8 mb 0.00 in0.0 mm 0.00 in0.0 mm 0.00 in0.0 mm
01:20 PM 7.5°F-13.6°C 2.4°F-16.4°C 79% Calm Calm -- 31.68 in1072.8 mb 0.00 in0.0 mm 0.00 in0.0 mm 0.00 in0.0 mm
01:15 PM 7.5°F-13.6°C 2.4°F-16.4°C 79% Calm Calm -- 31.68 in1072.8 mb 0.00 in0.0 mm 0.00 in0.0 mm 0.00 in0.0 mm
01:10 PM 7.7°F-13.5°C 2.6°F-16.3°C 79% Calm Calm 3.0 mph4.8 kmh 31.68 in1072.8 mb 0.00 in0.0 mm 0.00 in0.0 mm 0.00 in0.0 mm
01:05 PM 7.8°F-13.4°C 2.7°F-16.3°C 79% Calm Calm 3.0 mph4.8 kmh 31.54 in1068.1 mb 0.00 in0.0 mm 0.00 in0.0 mm 0.00 in0.0 mm
01:00 PM 8.0°F-13.3°C 2.9°F-16.2°C 79% Calm Calm 1.0 mph1.6 kmh 31.54 in1068.1 mb 0.00 in0.0 mm 0.00 in0.0 mm 0.00 in0.0 mm
12:55 PM 8.1°F-13.3°C 2.7°F-16.3°C 78% Calm Calm 5.0 mph8.0 kmh 31.54 in1068.1 mb 0.00 in0.0 mm 0.00 in0.0 mm 0.00 in0.0 mm
12:50 PM 8.3°F-13.2°C 3.1°F-16.1°C 79% Calm Calm 3.0 mph4.8 kmh 31.53 in1067.7 mb 0.00 in0.0 mm 0.00 in0.0 mm 0.00 in0.0 mm
12:45 PM 8.3°F-13.2°C 3.1°F-16.1°C 79% 1.0 mph NNW1.6 kmh NNW 5.0 mph8.0 kmh 31.53 in1067.7 mb 0.00 in0.0 mm 0.00 in0.0 mm 0.00 in0.0 mm
12:40 PM 8.1°F-13.3°C 3.0°F-16.1°C 79% Calm Calm 5.0 mph8.0 kmh 31.53 in1067.7 mb 0.00 in0.0 mm 0.00 in0.0 mm 0.00 in0.0 mm
12:35 PM 7.9°F-13.4°C 2.8°F-16.2°C 79% 1.0 mph NNW1.6 kmh NNW 5.0 mph8.0 kmh 31.53 in1067.7 mb 0.00 in0.0 mm 0.00 in0.0 mm 0.00 in0.0 mm
12:30 PM 7.9°F-13.4°C 3.0°F-16.1°C 80% 3.0 mph NNW4.8 kmh NNW 6.0 mph9.7 kmh 31.53 in1067.7 mb 0.00 in0.0 mm 0.00 in0.0 mm 0.00 in0.0 mm
12:25 PM 7.6°F-13.6°C 2.7°F-16.3°C 80% Calm Calm 3.0 mph4.8 kmh 31.53 in1067.7 mb 0.00 in0.0 mm 0.00 in0.0 mm 0.00 in0.0 mm
12:20 PM 7.5°F-13.6°C 2.4°F-16.4°C 79% 1.0 mph NNW1.6 kmh NNW 2.0 mph3.2 kmh 31.53 in1067.7 mb 0.00 in0.0 mm 0.00 in0.0 mm 0.00 in0.0 mm
12:15 PM 7.6°F-13.6°C 2.5°F-16.4°C 79% Calm Calm 3.0 mph4.8 kmh 31.53 in1067.7 mb 0.00 in0.0 mm 0.00 in0.0 mm 0.00 in0.0 mm
12:10 PM 7.6°F-13.6°C 2.5°F-16.4°C 79% Calm Calm 4.0 mph6.4 kmh 31.53 in1067.7 mb 0.00 in0.0 mm 0.00 in0.0 mm 0.00 in0.0 mm
12:05 PM 7.6°F-13.6°C 2.5°F-16.4°C 79% Calm Calm 2.0 mph3.2 kmh 31.53 in1067.7 mb 0.00 in0.0 mm 0.00 in0.0 mm 0.00 in0.0 mm
12:00 PM 7.6°F-13.6°C 2.5°F-16.4°C 79% 2.0 mph NNW3.2 kmh NNW 4.0 mph6.4 kmh 31.53 in1067.7 mb 0.00 in0.0 mm 0.00 in0.0 mm 0.00 in0.0 mm
11:55 AM 7.6°F-13.6°C 2.5°F-16.4°C 79% 1.0 mph NNW1.6 kmh NNW 4.0 mph6.4 kmh 31.53 in1067.7 mb 0.00 in0.0 mm 0.00 in0.0 mm 0.00 in0.0 mm
11:50 AM 7.5°F-13.6°C 2.4°F-16.4°C 79% 1.0 mph NNW1.6 kmh NNW 5.0 mph8.0 kmh 31.53 in1067.7 mb 0.00 in0.0 mm 0.00 in0.0 mm 0.00 in0.0 mm
11:45 AM 7.7°F-13.5°C 2.6°F-16.3°C 79% 5.0 mph NNW8.0 kmh NNW 5.0 mph8.0 kmh 31.53 in1067.7 mb 0.00 in0.0 mm 0.00 in0.0 mm 0.00 in0.0 mm
11:40 AM 7.6°F-13.6°C 2.7°F-16.3°C 80% Calm Calm 4.0 mph6.4 kmh 31.53 in1067.7 mb 0.00 in0.0 mm 0.00 in0.0 mm 0.00 in0.0 mm
11:35 AM 7.5°F-13.6°C 2.6°F-16.3°C 80% Calm Calm 4.0 mph6.4 kmh 31.53 in1067.7 mb 0.00 in0.0 mm 0.00 in0.0 mm 0.00 in0.0 mm
11:29 AM 7.6°F-13.6°C 2.5°F-16.4°C 79% Calm Calm 2.0 mph3.2 kmh 31.53 in1067.7 mb 0.00 in0.0 mm 0.00 in0.0 mm 0.00 in0.0 mm
11:25 AM 7.7°F-13.5°C 2.6°F-16.3°C 79% Calm Calm -- 31.53 in1067.7 mb 0.00 in0.0 mm 0.00 in0.0 mm 0.00 in0.0 mm
11:20 AM 8.0°F-13.3°C 2.9°F-16.2°C 79% 1.0 mph NW1.6 kmh NW 4.0 mph6.4 kmh 31.53 in1067.7 mb 0.00 in0.0 mm 0.00 in0.0 mm 0.00 in0.0 mm
11:15 AM 8.1°F-13.3°C 3.2°F-16.0°C 80% Calm Calm -- 31.53 in1067.7 mb 0.00 in0.0 mm 0.00 in0.0 mm 0.00 in0.0 mm
11:10 AM 8.0°F-13.3°C 3.1°F-16.1°C 80% Calm Calm -- 31.53 in1067.7 mb 0.00 in0.0 mm 0.00 in0.0 mm 0.00 in0.0 mm
11:05 AM 7.7°F-13.5°C 2.8°F-16.2°C 80% Calm Calm -- 31.53 in1067.7 mb 0.00 in0.0 mm 0.00 in0.0 mm 0.00 in0.0 mm
11:00 AM 7.7°F-13.5°C 2.6°F-16.3°C 79% Calm Calm 3.0 mph4.8 kmh 31.53 in1067.7 mb 0.00 in0.0 mm 0.00 in0.0 mm 0.00 in0.0 mm
10:55 AM 7.8°F-13.4°C 2.9°F-16.2°C 80% 3.0 mph NW4.8 kmh NW 3.0 mph4.8 kmh 31.53 in1067.7 mb 0.00 in0.0 mm 0.00 in0.0 mm 0.00 in0.0 mm
10:50 AM 7.8°F-13.4°C 2.9°F-16.2°C 80% Calm Calm -- 31.53 in1067.7 mb 0.00 in0.0 mm 0.00 in0.0 mm 0.00 in0.0 mm
10:45 AM 7.8°F-13.4°C 2.9°F-16.2°C 80% Calm Calm -- 31.53 in1067.7 mb 0.00 in0.0 mm 0.00 in0.0 mm 0.00 in0.0 mm
10:40 AM 7.7°F-13.5°C 2.8°F-16.2°C 80% Calm Calm -- 31.53 in1067.7 mb 0.00 in0.0 mm 0.00 in0.0 mm 0.00 in0.0 mm
10:35 AM 7.6°F-13.6°C 3.0°F-16.1°C 81% Calm Calm -- 31.53 in1067.7 mb 0.00 in0.0 mm 0.00 in0.0 mm 0.00 in0.0 mm
10:30 AM 7.5°F-13.6°C 2.6°F-16.3°C 80% Calm Calm 3.0 mph4.8 kmh 31.53 in1067.7 mb 0.00 in0.0 mm 0.00 in0.0 mm 0.00 in0.0 mm
10:25 AM 7.6°F-13.6°C 2.7°F-16.3°C 80% Calm Calm 2.0 mph3.2 kmh 31.53 in1067.7 mb 0.00 in0.0 mm 0.00 in0.0 mm 0.00 in0.0 mm
10:20 AM 7.6°F-13.6°C 3.0°F-16.1°C 81% Calm Calm -- 31.53 in1067.7 mb 0.00 in0.0 mm 0.00 in0.0 mm 0.00 in0.0 mm
10:15 AM 7.6°F-13.6°C 3.0°F-16.1°C 81% Calm Calm 4.0 mph6.4 kmh 31.53 in1067.7 mb 0.00 in0.0 mm 0.00 in0.0 mm 0.00 in0.0 mm
10:10 AM 7.6°F-13.6°C 3.0°F-16.1°C 81% Calm Calm 4.0 mph6.4 kmh 31.60 in1070.1 mb 0.00 in0.0 mm 0.00 in0.0 mm 0.00 in0.0 mm
10:05 AM 7.8°F-13.4°C 3.2°F-16.0°C 81% Calm Calm 4.0 mph6.4 kmh 31.60 in1070.1 mb 0.00 in0.0 mm 0.00 in0.0 mm 0.00 in0.0 mm
10:00 AM 7.8°F-13.4°C 3.2°F-16.0°C 81% Calm Calm 3.0 mph4.8 kmh 31.64 in1071.5 mb 0.00 in0.0 mm 0.00 in0.0 mm 0.00 in0.0 mm
09:55 AM 7.9°F-13.4°C 3.3°F-15.9°C 81% Calm Calm 4.0 mph6.4 kmh 31.64 in1071.5 mb 0.00 in0.0 mm 0.00 in0.0 mm 0.00 in0.0 mm
09:50 AM 7.9°F-13.4°C 3.6°F-15.8°C 82% 1.0 mph NW1.6 kmh NW 4.0 mph6.4 kmh 31.64 in1071.5 mb 0.00 in0.0 mm 0.00 in0.0 mm 0.00 in0.0 mm
09:45 AM 7.9°F-13.4°C 3.6°F-15.8°C 82% Calm Calm 5.0 mph8.0 kmh 31.64 in1071.5 mb 0.00 in0.0 mm 0.00 in0.0 mm 0.00 in0.0 mm
09:40 AM 7.9°F-13.4°C 6.1°F-14.4°C 92% Calm Calm 4.0 mph6.4 kmh 31.64 in1071.5 mb 0.00 in0.0 mm 0.00 in0.0 mm 0.00 in0.0 mm
09:35 AM 7.8°F-13.4°C 3.7°F-15.7°C 83% Calm Calm 3.0 mph4.8 kmh 31.64 in1071.5 mb 0.00 in0.0 mm 0.00 in0.0 mm 0.00 in0.0 mm
09:29 AM 7.7°F-13.5°C 3.4°F-15.9°C 82% Calm Calm 3.0 mph4.8 kmh 31.64 in1071.5 mb 0.00 in0.0 mm 0.00 in0.0 mm 0.00 in0.0 mm
09:25 AM 7.8°F-13.4°C 3.5°F-15.8°C 82% Calm Calm -- 31.64 in1071.5 mb 0.00 in0.0 mm 0.00 in0.0 mm 0.00 in0.0 mm
09:20 AM 8.0°F-13.3°C 3.7°F-15.7°C 82% Calm Calm 3.0 mph4.8 kmh 31.64 in1071.5 mb 0.00 in0.0 mm 0.00 in0.0 mm 0.00 in0.0 mm
09:15 AM 8.2°F-13.2°C 4.1°F-15.5°C 83% 2.0 mph NNW3.2 kmh NNW 5.0 mph8.0 kmh 31.64 in1071.5 mb 0.00 in0.0 mm 0.00 in0.0 mm 0.00 in0.0 mm
09:10 AM 8.3°F-13.2°C 4.2°F-15.4°C 83% Calm Calm 1.0 mph1.6 kmh 31.64 in1071.5 mb 0.00 in0.0 mm 0.00 in0.0 mm 0.00 in0.0 mm
09:05 AM 8.3°F-13.2°C 4.2°F-15.4°C 83% Calm Calm 5.0 mph8.0 kmh 31.64 in1071.5 mb 0.00 in0.0 mm 0.00 in0.0 mm 0.00 in0.0 mm
09:00 AM 8.7°F-12.9°C 4.6°F-15.2°C 83% 2.0 mph NW3.2 kmh NW 4.0 mph6.4 kmh 31.62 in1070.8 mb 0.00 in0.0 mm 0.00 in0.0 mm 0.00 in0.0 mm
08:55 AM 9.0°F-12.8°C 4.9°F-15.1°C 83% Calm Calm -- 31.62 in1070.8 mb 0.00 in0.0 mm 0.00 in0.0 mm 0.00 in0.0 mm
08:50 AM 9.5°F-12.5°C 5.7°F-14.6°C 84% 2.0 mph N3.2 kmh N 3.0 mph4.8 kmh 31.62 in1070.8 mb 0.00 in0.0 mm 0.00 in0.0 mm 0.00 in0.0 mm
08:45 AM 10.0°F-12.2°C 6.1°F-14.4°C 84% Calm Calm 2.0 mph3.2 kmh 31.62 in1070.8 mb 0.00 in0.0 mm 0.00 in0.0 mm 0.00 in0.0 mm
08:40 AM 10.7°F-11.8°C 7.1°F-13.8°C 85% Calm Calm -- 31.61 in1070.4 mb 0.00 in0.0 mm 0.00 in0.0 mm 0.00 in0.0 mm
08:35 AM 10.8°F-11.8°C 7.2°F-13.8°C 85% 5.0 mph SE8.0 kmh SE 5.0 mph8.0 kmh 31.61 in1070.4 mb 0.00 in0.0 mm 0.00 in0.0 mm 0.00 in0.0 mm
08:30 AM 10.8°F-11.8°C 7.4°F-13.7°C 86% Calm Calm -- 31.61 in1070.4 mb 0.00 in0.0 mm 0.00 in0.0 mm 0.00 in0.0 mm
08:25 AM 10.6°F-11.9°C 7.0°F-13.9°C 85% Calm Calm -- 31.61 in1070.4 mb 0.00 in0.0 mm 0.00 in0.0 mm 0.00 in0.0 mm
08:20 AM 10.5°F-11.9°C 7.2°F-13.8°C 86% Calm Calm -- 31.52 in1067.4 mb 0.00 in0.0 mm 0.00 in0.0 mm 0.00 in0.0 mm
08:15 AM 10.2°F-12.1°C 6.9°F-13.9°C 86% Calm Calm -- 31.51 in1067.1 mb 0.00 in0.0 mm 0.00 in0.0 mm 0.00 in0.0 mm
08:10 AM 9.9°F-12.3°C 6.6°F-14.1°C 86% Calm Calm -- 31.51 in1067.1 mb 0.00 in0.0 mm 0.00 in0.0 mm 0.00 in0.0 mm
08:05 AM 9.8°F-12.3°C 6.5°F-14.2°C 86% Calm Calm -- 31.51 in1067.1 mb 0.00 in0.0 mm 0.00 in0.0 mm 0.00 in0.0 mm
08:00 AM 9.4°F-12.6°C 6.1°F-14.4°C 86% Calm Calm -- 31.53 in1067.7 mb 0.00 in0.0 mm 0.00 in0.0 mm 0.00 in0.0 mm
07:55 AM 9.0°F-12.8°C 5.7°F-14.6°C 86% Calm Calm -- 31.53 in1067.7 mb 0.00 in0.0 mm 0.00 in0.0 mm 0.00 in0.0 mm
07:50 AM 8.4°F-13.1°C 5.1°F-14.9°C 86% Calm Calm -- 31.53 in1067.7 mb 0.00 in0.0 mm 0.00 in0.0 mm 0.00 in0.0 mm
07:45 AM 7.7°F-13.5°C 4.4°F-15.3°C 86% Calm Calm -- 31.60 in1070.1 mb 0.00 in0.0 mm 0.00 in0.0 mm 0.00 in0.0 mm
07:40 AM 6.9°F-13.9°C 3.6°F-15.8°C 86% Calm Calm -- 31.66 in1072.1 mb 0.00 in0.0 mm 0.00 in0.0 mm 0.00 in0.0 mm
07:35 AM 6.2°F-14.3°C 2.7°F-16.3°C 85% Calm Calm -- 31.66 in1072.1 mb 0.00 in0.0 mm 0.00 in0.0 mm 0.00 in0.0 mm
07:29 AM 5.8°F-14.6°C 2.3°F-16.5°C 85% Calm Calm -- 31.66 in1072.1 mb 0.00 in0.0 mm 0.00 in0.0 mm 0.00 in0.0 mm
07:25 AM 5.5°F-14.7°C 2.0°F-16.7°C 85% Calm Calm -- 31.69 in1073.1 mb 0.00 in0.0 mm 0.00 in0.0 mm 0.00 in0.0 mm
07:20 AM 5.1°F-14.9°C 1.3°F-17.1°C 84% Calm Calm -- 31.72 in1074.2 mb 0.00 in0.0 mm 0.00 in0.0 mm 0.00 in0.0 mm
07:15 AM 4.6°F-15.2°C 0.8°F-17.3°C 84% Calm Calm -- 31.78 in1076.2 mb 0.00 in0.0 mm 0.00 in0.0 mm 0.00 in0.0 mm
07:10 AM 4.3°F-15.4°C 2.5°F-16.4°C 92% Calm Calm -- 31.76 in1075.5 mb 0.00 in0.0 mm 0.00 in0.0 mm 0.00 in0.0 mm
07:05 AM 4.6°F-15.2°C 0.3°F-17.6°C 82% Calm Calm -- 31.72 in1074.2 mb 0.00 in0.0 mm 0.00 in0.0 mm 0.00 in0.0 mm
07:00 AM 5.3°F-14.8°C 0.8°F-17.3°C 81% Calm Calm -- 31.63 in1071.1 mb 0.00 in0.0 mm 0.00 in0.0 mm 0.00 in0.0 mm
06:55 AM 6.2°F-14.3°C 1.9°F-16.7°C 82% Calm Calm -- 31.75 in1075.2 mb 0.00 in0.0 mm 0.00 in0.0 mm 0.00 in0.0 mm
06:50 AM 7.1°F-13.8°C 3.0°F-16.1°C 83% Calm Calm -- 31.75 in1075.2 mb 0.00 in0.0 mm 0.00 in0.0 mm 0.00 in0.0 mm
06:45 AM 7.8°F-13.4°C 3.7°F-15.7°C 83% Calm Calm -- 31.76 in1075.5 mb 0.00 in0.0 mm 0.00 in0.0 mm 0.00 in0.0 mm
06:40 AM 8.4°F-13.1°C 4.6°F-15.2°C 84% Calm Calm -- 31.76 in1075.5 mb 0.00 in0.0 mm 0.00 in0.0 mm 0.00 in0.0 mm
06:35 AM 8.9°F-12.8°C 5.1°F-14.9°C 84% Calm Calm -- 31.76 in1075.5 mb 0.00 in0.0 mm 0.00 in0.0 mm 0.00 in0.0 mm
06:30 AM 9.2°F-12.7°C 5.4°F-14.8°C 84% Calm Calm -- 31.77 in1075.9 mb 0.00 in0.0 mm 0.00 in0.0 mm 0.00 in0.0 mm
06:25 AM 9.6°F-12.4°C 6.0°F-14.4°C 85% Calm Calm -- 31.75 in1075.2 mb 0.00 in0.0 mm 0.00 in0.0 mm 0.00 in0.0 mm
06:20 AM 9.9°F-12.3°C 6.3°F-14.3°C 85% Calm Calm -- 31.74 in1074.8 mb 0.00 in0.0 mm 0.00 in0.0 mm 0.00 in0.0 mm
06:15 AM 9.9°F-12.3°C 6.3°F-14.3°C 85% Calm Calm -- 31.81 in1077.2 mb 0.00 in0.0 mm 0.00 in0.0 mm 0.00 in0.0 mm
06:10 AM 9.9°F-12.3°C 6.3°F-14.3°C 85% Calm Calm -- 31.73 in1074.5 mb 0.00 in0.0 mm 0.00 in0.0 mm 0.00 in0.0 mm
06:05 AM 9.9°F-12.3°C 6.3°F-14.3°C 85% Calm Calm -- 31.79 in1076.5 mb 0.00 in0.0 mm 0.00 in0.0 mm 0.00 in0.0 mm
06:00 AM 10.0°F-12.2°C 6.4°F-14.2°C 85% Calm Calm -- 31.78 in1076.2 mb 0.00 in0.0 mm 0.00 in0.0 mm 0.00 in0.0 mm
05:55 AM 9.9°F-12.3°C 6.3°F-14.3°C 85% Calm Calm -- 31.83 in1077.9 mb 0.00 in0.0 mm 0.00 in0.0 mm 0.00 in0.0 mm
05:50 AM 9.9°F-12.3°C 6.3°F-14.3°C 85% Calm Calm -- 31.79 in1076.5 mb 0.00 in0.0 mm 0.00 in0.0 mm 0.00 in0.0 mm
05:45 AM 9.9°F-12.3°C 6.3°F-14.3°C 85% Calm Calm -- 31.79 in1076.5 mb 0.00 in0.0 mm 0.00 in0.0 mm 0.00 in0.0 mm
05:40 AM 9.8°F-12.3°C 6.2°F-14.3°C 85% Calm Calm -- 31.75 in1075.2 mb 0.00 in0.0 mm 0.00 in0.0 mm 0.00 in0.0 mm
05:35 AM 9.7°F-12.4°C 6.1°F-14.4°C 85% Calm Calm -- 31.77 in1075.9 mb 0.00 in0.0 mm 0.00 in0.0 mm 0.00 in0.0 mm
05:29 AM 9.5°F-12.5°C 5.9°F-14.5°C 85% Calm Calm -- 31.71 in1073.8 mb 0.00 in0.0 mm 0.00 in0.0 mm 0.00 in0.0 mm
05:25 AM 9.4°F-12.6°C 5.8°F-14.6°C 85% Calm Calm -- 31.80 in1076.9 mb 0.00 in0.0 mm 0.00 in0.0 mm 0.00 in0.0 mm
05:20 AM 9.4°F-12.6°C 5.8°F-14.6°C 85% Calm Calm -- 31.80 in1076.9 mb 0.00 in0.0 mm 0.00 in0.0 mm 0.00 in0.0 mm
05:15 AM 9.3°F-12.6°C 5.7°F-14.6°C 85% Calm Calm -- 31.78 in1076.2 mb 0.00 in0.0 mm 0.00 in0.0 mm 0.00 in0.0 mm
05:10 AM 9.3°F-12.6°C 5.7°F-14.6°C 85% Calm Calm -- 31.75 in1075.2 mb 0.00 in0.0 mm 0.00 in0.0 mm 0.00 in0.0 mm
05:05 AM 9.3°F-12.6°C 5.7°F-14.6°C 85% Calm Calm -- 31.77 in1075.9 mb 0.00 in0.0 mm 0.00 in0.0 mm 0.00 in0.0 mm
05:00 AM 9.3°F-12.6°C 5.7°F-14.6°C 85% Calm Calm -- 31.77 in1075.9 mb 0.00 in0.0 mm 0.00 in0.0 mm 0.00 in0.0 mm
04:55 AM 9.1°F-12.7°C 5.5°F-14.7°C 85% Calm Calm -- 31.79 in1076.5 mb 0.00 in0.0 mm 0.00 in0.0 mm 0.00 in0.0 mm
04:50 AM 9.0°F-12.8°C 5.4°F-14.8°C 85% Calm Calm -- 31.73 in1074.5 mb 0.00 in0.0 mm 0.00 in0.0 mm 0.00 in0.0 mm
04:45 AM 8.7°F-12.9°C 5.1°F-14.9°C 85% Calm Calm -- 31.77 in1075.9 mb 0.00 in0.0 mm 0.00 in0.0 mm 0.00 in0.0 mm
04:40 AM 8.2°F-13.2°C 4.6°F-15.2°C 85% Calm Calm -- 31.78 in1076.2 mb 0.00 in0.0 mm 0.00 in0.0 mm 0.00 in0.0 mm
04:35 AM 8.0°F-13.3°C 4.2°F-15.4°C 84% Calm Calm -- 31.77 in1075.9 mb 0.00 in0.0 mm 0.00 in0.0 mm 0.00 in0.0 mm
04:30 AM 8.0°F-13.3°C 4.2°F-15.4°C 84% Calm Calm -- 31.81 in1077.2 mb 0.00 in0.0 mm 0.00 in0.0 mm 0.00 in0.0 mm
04:25 AM 8.2°F-13.2°C 4.4°F-15.3°C 84% Calm Calm -- 31.81 in1077.2 mb 0.00 in0.0 mm 0.00 in0.0 mm 0.00 in0.0 mm
04:20 AM 8.3°F-13.2°C 4.5°F-15.3°C 84% Calm Calm -- 31.84 in1078.2 mb 0.00 in0.0 mm 0.00 in0.0 mm 0.00 in0.0 mm
04:15 AM 8.5°F-13.1°C 4.7°F-15.2°C 84% Calm Calm -- 31.79 in1076.5 mb 0.00 in0.0 mm 0.00 in0.0 mm 0.00 in0.0 mm
04:10 AM 8.6°F-13.0°C 4.8°F-15.1°C 84% Calm Calm -- 31.79 in1076.5 mb 0.00 in0.0 mm 0.00 in0.0 mm 0.00 in0.0 mm
04:05 AM 8.7°F-12.9°C 4.9°F-15.1°C 84% Calm Calm -- 31.79 in1076.5 mb 0.00 in0.0 mm 0.00 in0.0 mm 0.00 in0.0 mm
04:00 AM 8.7°F-12.9°C 5.1°F-14.9°C 85% Calm Calm -- 31.71 in1073.8 mb 0.00 in0.0 mm 0.00 in0.0 mm 0.00 in0.0 mm
03:55 AM 8.6°F-13.0°C 5.0°F-15.0°C 85% Calm Calm -- 31.73 in1074.5 mb 0.00 in0.0 mm 0.00 in0.0 mm 0.00 in0.0 mm
03:50 AM 8.4°F-13.1°C 4.8°F-15.1°C 85% Calm Calm -- 31.71 in1073.8 mb 0.00 in0.0 mm 0.00 in0.0 mm 0.00 in0.0 mm
03:45 AM 8.2°F-13.2°C 4.6°F-15.2°C 85% Calm Calm -- 31.78 in1076.2 mb 0.00 in0.0 mm 0.00 in0.0 mm 0.00 in0.0 mm
03:40 AM 7.9°F-13.4°C 4.1°F-15.5°C 84% Calm Calm -- 31.77 in1075.9 mb 0.00 in0.0 mm 0.00 in0.0 mm 0.00 in0.0 mm
03:35 AM 7.5°F-13.6°C 3.7°F-15.7°C 84% Calm Calm -- 31.57 in1069.1 mb 0.00 in0.0 mm 0.00 in0.0 mm 0.00 in0.0 mm
03:31 AM 7.4°F-13.7°C 3.3°F-15.9°C 83% Calm Calm -- 31.57 in1069.1 mb 0.00 in0.0 mm 0.00 in0.0 mm 0.00 in0.0 mm
03:30 AM 7.4°F-13.7°C 3.3°F-15.9°C 83% Calm Calm -- 31.57 in1069.1 mb 0.00 in0.0 mm 0.00 in0.0 mm 0.00 in0.0 mm
03:25 AM 7.6°F-13.6°C 3.5°F-15.8°C 83% Calm Calm -- 31.69 in1073.1 mb 0.00 in0.0 mm 0.00 in0.0 mm 0.00 in0.0 mm
03:20 AM 7.9°F-13.4°C 3.8°F-15.7°C 83% Calm Calm -- 31.66 in1072.1 mb 0.00 in0.0 mm 0.00 in0.0 mm 0.00 in0.0 mm
03:15 AM 8.2°F-13.2°C 4.1°F-15.5°C 83% Calm Calm -- 31.61 in1070.4 mb 0.00 in0.0 mm 0.00 in0.0 mm 0.00 in0.0 mm
03:10 AM 8.4°F-13.1°C 4.6°F-15.2°C 84% Calm Calm -- 31.60 in1070.1 mb 0.00 in0.0 mm 0.00 in0.0 mm 0.00 in0.0 mm
03:05 AM 8.5°F-13.1°C 4.7°F-15.2°C 84% Calm Calm -- 31.65 in1071.8 mb 0.00 in0.0 mm 0.00 in0.0 mm 0.00 in0.0 mm
03:00 AM 8.7°F-12.9°C 4.9°F-15.1°C 84% Calm Calm -- 31.65 in1071.8 mb 0.00 in0.0 mm 0.00 in0.0 mm 0.00 in0.0 mm
02:55 AM 9.0°F-12.8°C 5.2°F-14.9°C 84% Calm Calm -- 31.65 in1071.8 mb 0.00 in0.0 mm 0.00 in0.0 mm 0.00 in0.0 mm
02:50 AM 9.0°F-12.8°C 5.4°F-14.8°C 85% Calm Calm -- 31.70 in1073.5 mb 0.00 in0.0 mm 0.00 in0.0 mm 0.00 in0.0 mm
02:45 AM 9.0°F-12.8°C 5.4°F-14.8°C 85% Calm Calm -- 31.64 in1071.5 mb 0.00 in0.0 mm 0.00 in0.0 mm 0.00 in0.0 mm
02:40 AM 8.9°F-12.8°C 5.3°F-14.8°C 85% Calm Calm -- 31.55 in1068.4 mb 0.00 in0.0 mm 0.00 in0.0 mm 0.00 in0.0 mm
02:35 AM 8.7°F-12.9°C 5.1°F-14.9°C 85% Calm Calm -- 31.63 in1071.1 mb 0.00 in0.0 mm 0.00 in0.0 mm 0.00 in0.0 mm
02:29 AM 8.1°F-13.3°C 4.5°F-15.3°C 85% Calm Calm 1.0 mph1.6 kmh 31.66 in1072.1 mb 0.00 in0.0 mm 0.00 in0.0 mm 0.00 in0.0 mm
02:25 AM 7.6°F-13.6°C 3.8°F-15.7°C 84% Calm Calm -- 31.61 in1070.4 mb 0.00 in0.0 mm 0.00 in0.0 mm 0.00 in0.0 mm
02:20 AM 7.1°F-13.8°C 3.3°F-15.9°C 84% Calm Calm -- 31.62 in1070.8 mb 0.00 in0.0 mm 0.00 in0.0 mm 0.00 in0.0 mm
02:15 AM 6.9°F-13.9°C 2.8°F-16.2°C 83% Calm Calm -- 31.67 in1072.5 mb 0.00 in0.0 mm 0.00 in0.0 mm 0.00 in0.0 mm
02:10 AM 7.1°F-13.8°C 2.8°F-16.2°C 82% Calm Calm -- 31.70 in1073.5 mb 0.00 in0.0 mm 0.00 in0.0 mm 0.00 in0.0 mm
02:05 AM 7.8°F-13.4°C 3.5°F-15.8°C 82% Calm Calm -- 31.67 in1072.5 mb 0.00 in0.0 mm 0.00 in0.0 mm 0.00 in0.0 mm
02:00 AM 8.6°F-13.0°C 4.5°F-15.3°C 83% Calm Calm -- 31.74 in1074.8 mb 0.00 in0.0 mm 0.00 in0.0 mm 0.00 in0.0 mm
01:55 AM 8.9°F-12.8°C 5.1°F-14.9°C 84% Calm Calm -- 31.74 in1074.8 mb 0.00 in0.0 mm 0.00 in0.0 mm 0.00 in0.0 mm
01:50 AM 9.0°F-12.8°C 4.9°F-15.1°C 83% Calm Calm -- 31.74 in1074.8 mb 0.00 in0.0 mm 0.00 in0.0 mm 0.00 in0.0 mm
01:45 AM 9.6°F-12.4°C 5.5°F-14.7°C 83% Calm Calm -- 31.74 in1074.8 mb 0.00 in0.0 mm 0.00 in0.0 mm 0.00 in0.0 mm
01:40 AM 10.1°F-12.2°C 6.0°F-14.4°C 83% Calm Calm -- 31.78 in1076.2 mb 0.00 in0.0 mm 0.00 in0.0 mm 0.00 in0.0 mm
01:35 AM 10.7°F-11.8°C 6.8°F-14.0°C 84% Calm Calm -- 31.74 in1074.8 mb 0.00 in0.0 mm 0.00 in0.0 mm 0.00 in0.0 mm
01:29 AM 11.0°F-11.7°C 7.1°F-13.8°C 84% Calm Calm -- 31.74 in1074.8 mb 0.00 in0.0 mm 0.00 in0.0 mm 0.00 in0.0 mm
01:25 AM 11.2°F-11.6°C 7.3°F-13.7°C 84% Calm Calm -- 31.77 in1075.9 mb 0.00 in0.0 mm 0.00 in0.0 mm 0.00 in0.0 mm
01:20 AM 11.4°F-11.4°C 7.5°F-13.6°C 84% Calm Calm -- 31.72 in1074.2 mb 0.00 in0.0 mm 0.00 in0.0 mm 0.00 in0.0 mm
01:15 AM 11.4°F-11.4°C 7.5°F-13.6°C 84% Calm Calm -- 31.77 in1075.9 mb 0.00 in0.0 mm 0.00 in0.0 mm 0.00 in0.0 mm
01:10 AM 11.6°F-11.3°C 7.7°F-13.5°C 84% Calm Calm -- 31.74 in1074.8 mb 0.00 in0.0 mm 0.00 in0.0 mm 0.00 in0.0 mm
01:05 AM 11.6°F-11.3°C 7.7°F-13.5°C 84% Calm Calm -- 31.73 in1074.5 mb 0.00 in0.0 mm 0.00 in0.0 mm 0.00 in0.0 mm
01:00 AM 11.6°F-11.3°C 7.7°F-13.5°C 84% Calm Calm -- 31.75 in1075.2 mb 0.00 in0.0 mm 0.00 in0.0 mm 0.00 in0.0 mm
12:55 AM 11.5°F-11.4°C 7.6°F-13.6°C 84% Calm Calm -- 31.76 in1075.5 mb 0.00 in0.0 mm 0.00 in0.0 mm 0.00 in0.0 mm
12:50 AM 11.5°F-11.4°C 7.6°F-13.6°C 84% Calm Calm -- 31.77 in1075.9 mb 0.00 in0.0 mm 0.00 in0.0 mm 0.00 in0.0 mm
12:45 AM 11.4°F-11.4°C 7.5°F-13.6°C 84% Calm Calm -- 31.76 in1075.5 mb 0.00 in0.0 mm 0.00 in0.0 mm 0.00 in0.0 mm
12:40 AM 11.4°F-11.4°C 7.5°F-13.6°C 84% Calm Calm -- 31.76 in1075.5 mb 0.00 in0.0 mm 0.00 in0.0 mm 0.00 in0.0 mm
12:35 AM 11.4°F-11.4°C 7.3°F-13.7°C 83% Calm Calm -- 31.73 in1074.5 mb 0.00 in0.0 mm 0.00 in0.0 mm 0.00 in0.0 mm
12:30 AM 11.3°F-11.5°C 7.2°F-13.8°C 83% Calm Calm -- 31.58 in1069.4 mb 0.00 in0.0 mm 0.00 in0.0 mm 0.00 in0.0 mm
12:25 AM 11.4°F-11.4°C 7.3°F-13.7°C 83% Calm Calm -- 31.60 in1070.1 mb 0.00 in0.0 mm 0.00 in0.0 mm 0.00 in0.0 mm
12:20 AM 11.4°F-11.4°C 7.3°F-13.7°C 83% Calm Calm -- 31.54 in1068.1 mb 0.00 in0.0 mm 0.00 in0.0 mm 0.00 in0.0 mm
12:15 AM 11.5°F-11.4°C 7.4°F-13.7°C 83% Calm Calm -- 31.45 in1065.0 mb 0.00 in0.0 mm 0.00 in0.0 mm 0.00 in0.0 mm
12:10 AM 11.6°F-11.3°C 7.5°F-13.6°C 83% Calm Calm -- 31.52 in1067.4 mb 0.00 in0.0 mm 0.00 in0.0 mm 0.00 in0.0 mm
12:05 AM 11.6°F-11.3°C 7.5°F-13.6°C 83% Calm Calm -- 31.51 in1067.1 mb 0.00 in0.0 mm 0.00 in0.0 mm 0.00 in0.0 mm
12:00 AM 11.8°F-11.2°C 7.6°F-13.6°C 83% 3.0 mph SE4.8 kmh SE 5.0 mph8.0 kmh 31.47 in1065.7 mb 0.00 in0.0 mm 0.00 in0.0 mm 0.00 in0.0 mm